Latest Weather Observations for Coen Airport

IDQ60801

Issued at 10:02 pm EST Tuesday 28 February 2017 (issued every 30 minutes, with the page automatically refreshed every 10 minutes)

About weather observations | Map of weather stations | Latest weather observations for QLD | Other Formats
Station Details ID: 027073 Name: COEN AIRPORT Lat: -13.76 Lon: 143.12 Height: 159.3 m
Data from the previous 72 hours. | See also: Recent months at Coen Airport
Date/Time
EST
Temp
°C
App
Temp
°C
Dew
Point
°C
Rel
Hum
%
Delta-T
°C
Wind Press
QNH
hPa
Press
MSL
hPa
Rain since
9am
mm
Dir  Spd
km/h
Gust
km/h
Spd
kts
Gust
kts
28/10:00pm 25.7 30.9 22.8 84 2.0 CALM 0 6 0 3 1009.8 - 0.0
28/09:30pm 25.7 29.8 23.0 85 1.8 NE 6 7 3 4 1009.8 - 0.0
28/09:00pm 25.8 31.1 23.1 85 1.8 CALM 0 6 0 3 1009.6 1008.6 0.0
28/08:30pm 26.0 30.5 22.9 83 2.1 NNE 4 9 2 5 1009.2 - 0.0
28/08:00pm 26.5 30.2 22.3 78 2.8 NE 6 11 3 6 1008.8 - 0.0
28/07:30pm 27.0 30.0 22.0 74 3.4 NE 9 17 5 9 1008.5 - 0.0
28/07:00pm 27.4 29.9 21.7 71 3.8 ENE 11 19 6 10 1008.3 - 0.0
28/06:30pm 28.0 30.4 20.8 65 4.8 E 9 20 5 11 1008.1 - 0.0
28/06:00pm 28.7 30.5 21.2 64 5.0 E 13 24 7 13 1007.8 1006.8 0.0
28/05:30pm 29.5 30.7 22.2 65 5.0 ENE 19 32 10 17 1007.5 - 0.0
28/05:00pm 30.1 30.5 20.6 56 6.3 ENE 19 30 10 16 1007.3 - 0.0
28/04:30pm 31.0 33.0 21.5 57 6.4 ESE 13 26 7 14 1006.9 - 0.0
28/04:00pm 30.0 31.7 22.4 63 5.2 ENE 17 30 9 16 1007.2 - 0.0
28/03:30pm 29.4 29.9 20.8 60 5.7 E 19 32 10 17 1007.5 - 0.0
28/03:00pm 30.2 31.4 22.1 62 5.5 NE 19 24 10 13 1007.4 1006.4 0.0
28/02:30pm 30.9 31.4 20.8 55 6.8 E 19 26 10 14 1007.4 - 0.0
28/02:00pm 29.7 31.3 22.2 64 5.1 ENE 17 28 9 15 1007.8 - 0.0
28/01:30pm 29.2 29.1 21.4 63 5.2 ENE 24 37 13 20 1008.4 - 0.0
28/01:00pm 28.1 27.9 20.6 63 5.0 ENE 22 33 12 18 1008.8 - 0.0
28/12:30pm 30.5 32.8 22.1 61 5.7 ENE 13 30 7 16 1008.8 - 0.0
28/12:00pm 30.6 33.1 22.5 62 5.6 E 13 22 7 12 1009.1 1008.1 0.0
28/11:30am 29.1 29.8 21.6 64 5.1 NE 20 37 11 20 1009.7 - 0.0
28/11:00am 30.4 31.1 21.2 58 6.2 E 19 28 10 15 1009.7 - 0.0
28/10:30am 29.9 33.2 21.8 62 5.5 E 7 13 4 7 1009.8 - 0.0
28/10:00am 29.4 32.7 21.9 64 5.1 E 7 13 4 7 1009.8 - 0.0
28/09:30am 28.0 32.2 22.5 72 3.7 S 4 7 2 4 1010.2 - 0.0
28/09:00am 27.3 31.9 21.8 72 3.7 CALM 0 2 0 1 1010.3 1009.3 0.0
28/08:30am 25.9 28.9 22.0 79 2.6 NNE 9 13 5 7 1010.3 - 0.0
28/08:00am 25.0 28.6 22.3 85 1.8 NNW 7 13 4 7 1009.8 - 0.0
28/07:30am 23.5 27.2 22.3 93 0.8 N 6 9 3 5 1009.8 - 0.0
28/07:00am 23.2 27.0 22.4 95 0.5 NNW 6 9 3 5 1009.7 - 0.0
28/06:30am 23.3 27.3 22.1 93 0.8 WSW 4 7 2 4 1009.3 - 0.0
28/06:00am 23.4 27.7 22.0 92 0.9 WSW 2 6 1 3 1008.8 1007.8 0.0
28/05:30am 23.8 28.4 22.4 92 0.9 WNW 2 7 1 4 1008.7 - 0.0
28/05:00am 24.0 28.9 22.3 90 1.1 CALM 0 0 0 0 1008.8 - 0.0
28/04:30am 24.6 27.8 21.7 84 1.9 NNE 7 9 4 5 1008.5 - 0.0
28/04:00am 25.1 28.2 22.2 84 2.0 SE 9 13 5 7 1008.2 - 0.0
28/03:30am 24.5 29.6 22.6 89 1.3 CALM 0 0 0 0 1008.2 - 0.0
28/03:00am 24.7 28.7 22.0 85 1.8 S 4 7 2 4 1008.5 1007.5 0.0
28/02:30am 25.0 30.0 22.5 86 1.7 CALM 0 0 0 0 1009.0 - 0.0
28/02:00am 25.3 28.7 21.6 80 2.5 ESE 6 9 3 5 1009.2 - 0.0
28/01:30am 24.8 29.4 21.7 83 2.1 CALM 0 0 0 0 1009.4 - 0.0
28/01:00am 25.7 28.5 21.6 78 2.7 SE 9 17 5 9 1009.8 - 0.0
28/12:30am 25.6 28.8 21.7 79 2.6 SSE 7 11 4 6 1009.9 - 0.0
28/12:00am 25.4 28.6 21.7 80 2.5 E 7 15 4 8 1010.2 1009.2 0.0
 
Date/Time
EST
Temp
°C
App
Temp
°C
Dew
Point
°C
Rel
Hum
%
Delta-T
°C
Wind Press
QNH
hPa
Press
MSL
hPa
Rain since
9am
mm
Dir  Spd
km/h
Gust
km/h
Spd
kts
Gust
kts
27/11:30pm 25.2 28.4 21.7 81 2.3 E 7 11 4 6 1010.5 - 0.0
27/11:00pm 25.0 28.1 22.1 84 1.9 ESE 9 13 5 7 1010.6 - 0.0
27/10:30pm 24.9 28.3 22.0 84 1.9 ESE 7 9 4 5 1010.3 - 0.0
27/10:00pm 25.0 28.1 22.1 84 1.9 SE 9 11 5 6 1010.1 - 0.0
27/09:30pm 25.3 28.2 21.8 81 2.3 SSE 9 13 5 7 1010.1 - 0.0
27/09:00pm 26.0 28.1 21.0 74 3.3 ESE 11 15 6 8 1009.7 1008.6 0.0
27/08:30pm 25.7 27.5 21.1 76 3.1 ESE 13 19 7 10 1009.4 - 0.0
27/08:00pm 25.8 26.8 21.0 75 3.2 ESE 17 22 9 12 1009.2 - 0.0
27/07:30pm 26.2 26.9 20.5 71 3.8 SE 17 24 9 13 1009.0 - 0.0
27/07:00pm 26.3 27.9 20.8 71 3.6 SE 13 15 7 8 1008.3 - 0.0
27/06:30pm 26.5 28.5 19.9 67 4.3 ENE 9 13 5 7 1008.1 - 0.0
27/06:00pm 26.5 29.2 21.3 73 3.5 E 9 15 5 8 1008.2 1007.2 0.0
27/05:30pm 26.9 27.2 20.7 69 4.1 ESE 20 26 11 14 1008.2 - 0.0
27/05:00pm 27.9 29.0 21.2 67 4.5 E 17 37 9 20 1008.0 - 0.0
27/04:30pm 27.3 30.2 22.5 75 3.3 ENE 11 17 6 9 1007.7 - 0.0
27/04:00pm 28.7 29.0 21.5 65 4.8 ESE 22 37 12 20 1007.6 - 0.0
27/03:30pm 30.5 31.5 22.1 61 5.7 SE 20 32 11 17 1007.7 - 0.0
27/03:00pm 29.6 31.4 21.8 63 5.3 E 15 20 8 11 1007.7 1006.7 0.0
27/02:30pm 29.5 30.3 21.4 61 5.5 ESE 19 26 10 14 1008.0 - 0.0
27/02:00pm 30.2 31.2 22.9 65 5.0 ESE 22 35 12 19 1008.2 - 0.0
27/01:30pm 30.1 31.2 22.0 62 5.5 ESE 19 30 10 16 1008.6 - 0.0
27/01:00pm 30.1 30.6 22.0 62 5.5 SSE 22 32 12 17 1009.1 - 0.0
27/12:30pm 30.0 31.3 21.7 61 5.6 ESE 17 24 9 13 1009.6 - 0.0
27/12:00pm 30.0 31.1 21.9 62 5.5 ESE 19 32 10 17 1010.1 1009.1 0.0
27/11:30am 29.1 32.2 22.1 66 4.8 SE 9 13 5 7 1010.3 - 0.0
27/11:00am 28.4 31.3 21.7 67 4.5 NE 9 15 5 8 1010.5 - 0.0
27/10:30am 27.2 28.9 21.7 72 3.7 NE 15 20 8 11 1011.1 - 0.0
27/10:00am 26.0 27.6 21.4 76 3.1 NE 15 24 8 13 1011.9 - 0.0
27/09:30am 25.8 27.2 21.9 79 2.6 NNE 17 26 9 14 1012.1 - 0.0
27/09:00am 26.0 29.1 22.1 79 2.6 NNE 9 13 5 7 1011.6 1010.6 0.2
27/08:30am 25.6 29.3 22.5 83 2.1 N 7 11 4 6 1011.4 - 0.2
27/08:00am 24.6 27.7 22.8 90 1.2 NNE 11 15 6 8 1011.4 - 0.2
27/07:30am 24.4 28.6 23.5 95 0.6 NE 7 9 4 5 1010.8 - 0.2
27/07:00am 24.2 28.9 23.3 95 0.6 E 4 9 2 5 1010.5 - 0.2
27/06:30am 24.2 29.6 23.2 94 0.7 CALM 0 0 0 0 1010.3 - 0.2
27/06:00am 24.2 29.5 23.0 93 0.8 CALM 0 0 0 0 1009.8 1008.8 0.2
27/05:30am 24.3 29.6 23.1 93 0.8 CALM 0 6 0 3 1009.7 - 0.2
27/05:00am 24.2 28.0 22.8 92 0.9 S 7 9 4 5 1009.2 - 0.2
27/04:30am 24.4 28.2 22.8 91 1.1 SSE 7 9 4 5 1008.8 - 0.2
27/04:00am 24.4 28.6 22.5 89 1.3 SSW 4 9 2 5 1008.7 - 0.2
27/03:30am 24.5 28.4 22.6 89 1.3 SSW 6 9 3 5 1008.7 - 0.2
27/03:00am 24.7 28.4 22.6 88 1.4 S 7 9 4 5 1008.9 1007.9 0.2
27/02:30am 24.8 28.8 22.7 88 1.4 S 6 7 3 4 1008.9 - 0.2
27/02:00am 24.8 29.1 22.7 88 1.4 SW 4 7 2 4 1009.2 - 0.2
27/01:30am 24.8 30.0 22.9 89 1.3 CALM 0 0 0 0 1009.6 - 0.2
27/01:00am 24.8 29.9 22.7 88 1.4 CALM 0 4 0 2 1010.0 - 0.2
27/12:30am 24.8 28.6 22.7 88 1.4 SW 7 9 4 5 1010.1 - 0.2
27/12:00am 25.1 29.9 22.8 87 1.6 W 2 6 1 3 1010.3 1009.3 0.2
 
Date/Time
EST
Temp
°C
App
Temp
°C
Dew
Point
°C
Rel
Hum
%
Delta-T
°C
Wind Press
QNH
hPa
Press
MSL
hPa
Rain since
9am
mm
Dir  Spd
km/h
Gust
km/h
Spd
kts
Gust
kts
26/11:30pm 25.0 30.1 22.7 87 1.6 CALM 0 0 0 0 1010.5 - 0.2
26/11:00pm 25.2 30.4 22.9 87 1.6 CALM 0 0 0 0 1010.3 - 0.2
26/10:30pm 25.2 29.4 22.5 85 1.8 N 4 9 2 5 1010.3 - 0.2
26/10:00pm 25.3 28.3 22.0 82 2.2 N 9 11 5 6 1010.0 - 0.2
26/09:30pm 26.3 31.4 22.6 80 2.5 CALM 0 0 0 0 1009.9 - 0.2
26/09:00pm 26.5 32.0 23.4 83 2.1 CALM 0 0 0 0 1009.6 1008.6 0.2
26/08:30pm 26.4 31.6 23.5 84 2.0 W 2 7 1 4 1009.5 - 0.2
26/08:00pm 26.6 30.9 22.7 79 2.7 NNE 4 9 2 5 1009.0 - 0.2
26/07:30pm 26.8 30.2 22.0 75 3.2 NNE 7 15 4 8 1008.4 - 0.2
26/07:00pm 27.3 30.5 21.6 71 3.8 ENE 7 11 4 6 1007.8 - 0.2
26/06:30pm 28.1 30.0 20.6 63 5.0 ENE 11 19 6 10 1007.7 - 0.2
26/06:00pm 28.5 30.5 20.8 63 5.1 ENE 11 19 6 10 1006.9 1005.9 0.2
26/05:30pm 29.1 29.8 19.7 57 6.2 ENE 15 26 8 14 1006.7 - 0.2
26/05:00pm 30.1 30.9 20.6 56 6.3 ENE 17 30 9 16 1006.5 - 0.2
26/04:30pm 30.7 31.1 20.6 54 6.7 ENE 19 30 10 16 1006.5 - 0.2
26/04:00pm 31.5 33.2 21.7 56 6.7 E 15 26 8 14 1006.5 - 0.2
26/03:30pm 31.2 32.2 21.7 57 6.5 NE 19 28 10 15 1006.5 - 0.2
26/03:00pm 31.2 32.0 21.7 57 6.5 NE 20 30 11 16 1006.6 1005.6 0.2
26/02:30pm 31.5 32.5 21.7 56 6.7 NE 19 30 10 16 1006.7 - 0.2
26/02:00pm 30.8 32.3 21.3 57 6.4 ENE 15 22 8 12 1007.1 - 0.2
26/01:30pm 31.0 34.0 23.4 64 5.3 E 13 22 7 12 1007.3 - 0.2
26/01:00pm 30.6 31.8 22.2 61 5.7 ENE 19 30 10 16 1007.8 - 0.2
26/12:30pm 30.9 32.9 23.0 62 5.5 NE 17 30 9 16 1008.3 - 0.2
26/12:00pm 30.3 32.1 22.5 63 5.3 NNE 17 24 9 13 1008.8 1007.8 0.2
26/11:30am 29.4 31.7 22.1 65 5.0 NE 13 19 7 10 1009.0 - 0.2
26/11:00am 29.2 32.3 22.9 69 4.3 NNE 11 17 6 9 1009.4 - 0.2
26/10:30am 28.4 32.6 22.4 70 4.1 NW 4 9 2 5 1009.7 - 0.0
26/10:00am 27.7 30.9 23.1 76 3.2 SSE 11 19 6 10 1010.2 - 0.0
26/09:30am 26.4 28.1 22.3 78 2.8 SSE 17 24 9 13 1010.4 - 0.0
26/09:00am 25.9 28.3 22.2 80 2.5 S 13 19 7 10 1010.7 1009.9 40.8
26/08:30am 25.2 28.1 22.5 85 1.8 S 11 19 6 10 1010.6 - 40.8
26/08:00am 24.5 28.3 22.7 90 1.2 S 7 9 4 5 1010.2 - 40.8
26/07:30am 24.1 28.0 22.9 93 0.8 S 7 9 4 5 1009.5 - 40.8
26/07:00am 23.7 28.3 22.5 93 0.8 ESE 2 6 1 3 1009.1 - 40.8
26/06:30am 23.8 27.5 22.6 93 0.8 SE 7 9 4 5 1008.7 - 40.8
26/06:00am 23.6 26.7 22.2 92 0.9 SE 9 11 5 6 1008.6 1007.6 40.8
26/05:30am 23.9 27.1 22.3 91 1.1 SSE 9 11 5 6 1008.6 - 40.8
26/05:00am 24.0 27.6 22.1 89 1.3 S 6 9 3 5 1008.8 - 40.8
26/04:30am 24.1 27.1 22.0 88 1.4 SSE 9 15 5 8 1008.7 - 40.8
26/04:00am 24.1 27.1 22.0 88 1.4 S 9 17 5 9 1008.9 - 40.8
26/03:30am 24.5 27.0 23.1 92 1.0 SSE 15 22 8 12 1008.7 - 40.8
26/03:00am 24.2 28.0 23.5 96 0.5 S 9 11 5 6 1008.8 1007.9 40.8
26/02:30am 23.9 27.6 23.2 96 0.5 S 9 13 5 7 1008.6 - 40.8
26/02:00am 23.9 27.7 23.4 97 0.3 S 9 13 5 7 1008.5 - 40.8
26/01:30am 23.9 28.1 23.4 97 0.3 S 7 9 4 5 1009.0 - 40.8
26/01:00am 24.0 27.8 23.5 97 0.3 W 9 15 5 8 1009.8 - 40.8
26/12:30am 24.2 26.9 23.5 96 0.5 W 15 20 8 11 1010.3 - 40.6
26/12:00am 24.4 27.5 22.1 87 1.5 E 9 20 5 11 1011.0 1009.9 3.8
 
Date/Time
EST
Temp
°C
App
Temp
°C
Dew
Point
°C
Rel
Hum
%
Delta-T
°C
Wind Press
QNH
hPa
Press
MSL
hPa
Rain since
9am
mm
Dir  Spd
km/h
Gust
km/h
Spd
kts
Gust
kts
25/11:30pm 26.1 30.0 23.6 86 1.7 WSW 9 13 5 7 1010.4 - 0.0
25/11:00pm 26.5 31.4 24.3 88 1.5 SW 6 7 3 4 1010.6 - 0.0
25/10:30pm 26.5 32.6 24.5 89 1.4 CALM 0 0 0 0 1010.5 - 0.0

Other Formats:

Comma delimited format used in spreadsheet applications
http://www.bom.gov.au/fwo/IDQ60801/IDQ60801.94183.axf

JavaScript Object Notation format (JSON) in row-major order
http://www.bom.gov.au/fwo/IDQ60801/IDQ60801.94183.json